Time;durP1;ratioP1;P1;durP2;ratioP2;P2;SDS_P1;SDS_P2;PMS_P1;PMS_P2;Temp;Humidity;BMP_temperature;BMP_pressure;BME280_temperature;BME280_humidity;BME280_pressure;Samples;Min_cycle;Max_cycle;Signal;HPM_P1;HPM_P2
2022/06/07 00:01:35;;;;;;;2.40;2.20;;;;;;;15.16;59.09;100646.94;4968104;28;20399;-22
2022/06/07 00:04:05;;;;;;;3.10;2.45;;;;;;;15.09;59.29;100648.91;4981917;28;20030;-22
2022/06/07 00:06:33;;;;;;;2.90;1.88;;;;;;;15.04;59.42;100649.94;4989508;28;20488;-22
2022/06/07 00:08:58;;;;;;;2.55;2.35;;;;;;;15.06;59.32;100641.00;4985259;28;20042;-22
2022/06/07 00:11:24;;;;;;;2.30;2.10;;;;;;;15.01;59.53;100643.78;4987826;28;20530;-22
2022/06/07 00:13:49;;;;;;;2.38;2.28;;;;;;;14.98;59.35;100645.69;4984467;28;20468;-22
2022/06/07 00:16:16;;;;;;;2.60;2.33;;;;;;;14.93;59.24;100636.94;4992773;28;20601;-22
2022/06/07 00:18:41;;;;;;;2.20;2.10;;;;;;;14.94;59.22;100641.38;4984738;28;20472;-22
2022/06/07 00:21:07;;;;;;;2.30;2.15;;;;;;;14.92;59.24;100643.19;4977392;28;20044;-24
2022/06/07 00:23:34;;;;;;;2.58;2.38;;;;;;;14.86;59.47;100649.53;4986753;28;20034;-22
2022/06/07 00:26:00;;;;;;;2.10;2.00;;;;;;;14.79;59.59;100640.88;4974954;28;20121;-22
2022/06/07 00:28:26;;;;;;;2.10;2.00;;;;;;;14.78;59.42;100644.44;4967788;28;20022;-22
2022/06/07 00:31:40;;;;;;;2.40;2.20;;;;;;;14.77;59.60;100641.81;4984416;28;20116;-22
2022/06/07 00:34:05;;;;;;;2.55;2.35;;;;;;;14.73;59.68;100639.22;4985209;28;20185;-22
2022/06/07 00:36:31;;;;;;;3.03;2.28;;;;;;;14.69;59.68;100645.53;4971142;28;20110;-22
2022/06/07 00:38:57;;;;;;;5.15;2.92;;;;;;;14.68;59.61;100632.28;4965311;28;20380;-22
2022/06/07 00:41:22;;;;;;;2.20;2.10;;;;;;;14.66;59.62;100640.28;4980603;28;20026;-22
2022/06/07 00:44:22;;;;;;;2.60;2.40;;;;;;;14.61;59.69;100639.56;4980145;28;20106;-22
2022/06/07 00:46:49;;;;;;;9.68;2.47;;;;;;;14.56;59.74;100644.09;4979948;28;20030;-22
2022/06/07 00:49:15;;;;;;;2.25;2.10;;;;;;;14.53;59.87;100639.75;4980824;28;20034;-22
2022/06/07 00:51:41;;;;;;;2.60;2.40;;;;;;;14.49;59.64;100641.63;4972497;28;20058;-22
2022/06/07 00:54:07;;;;;;;2.40;2.20;;;;;;;14.47;59.58;100640.78;4982885;28;20062;-22
2022/06/07 00:56:33;;;;;;;1.83;1.73;;;;;;;14.43;59.60;100640.88;4983373;28;20026;-23
2022/06/07 00:59:03;;;;;;;2.67;2.10;;;;;;;14.41;59.85;100646.25;4984781;28;20026;-22
2022/06/07 01:01:30;;;;;;;2.67;2.47;;;;;;;14.35;59.61;100646.41;4980699;28;20069;-23
2022/06/07 01:03:56;;;;;;;2.83;2.63;;;;;;;14.33;59.74;100640.25;4979770;28;20113;-23
2022/06/07 01:11:48;;;;;;;2.60;2.40;;;;;;;14.26;59.99;100643.97;4979046;28;20034;-23
2022/06/07 01:14:14;;;;;;;2.47;2.35;;;;;;;14.19;60.02;100636.19;4984731;28;20030;-23
2022/06/07 01:16:39;;;;;;;2.80;2.60;;;;;;;14.18;60.10;100631.78;4989213;28;20503;-22
2022/06/07 01:19:04;;;;;;;2.47;2.38;;;;;;;14.18;59.88;100629.16;4984043;28;20377;-22
2022/06/07 01:21:33;;;;;;;2.25;2.13;;;;;;;14.13;59.98;100620.41;4983919;28;20022;-22
2022/06/07 01:23:59;;;;;;;2.08;1.98;;;;;;;14.08;60.08;100627.63;4984765;28;20081;-22
2022/06/07 01:26:25;;;;;;;2.90;2.47;;;;;;;14.08;59.88;100632.94;4984605;28;20777;-22
2022/06/07 01:28:50;;;;;;;2.92;2.67;;;;;;;14.04;60.31;100623.31;4985774;28;20030;-22
2022/06/07 01:31:16;;;;;;;2.78;2.58;;;;;;;14.00;60.04;100616.34;4986508;28;20030;-22
2022/06/07 01:33:41;;;;;;;2.92;2.67;;;;;;;13.98;60.19;100624.31;4989519;28;20033;-24
2022/06/07 01:36:11;;;;;;;3.05;2.50;;;;;;;13.96;60.25;100636.72;4972233;28;20092;-22
2022/06/07 01:38:38;;;;;;;2.47;2.27;;;;;;;13.95;60.13;100633.22;4983609;28;20029;-22
2022/06/07 01:43:47;;;;;;;2.90;2.70;;;;;;;13.91;60.05;100631.53;4982931;28;20403;-22
2022/06/07 01:46:13;;;;;;;2.92;2.63;;;;;;;13.85;60.29;100631.69;4979442;28;20106;-22
2022/06/07 01:48:38;;;;;;;2.92;2.72;;;;;;;13.80;60.38;100621.19;4979276;28;20023;-22
2022/06/07 01:51:07;;;;;;;2.50;2.30;;;;;;;13.77;60.35;100631.00;4975108;28;20121;-22
2022/06/07 01:53:35;;;;;;;2.78;2.58;;;;;;;13.78;60.42;100630.09;4967550;28;20026;-22
2022/06/07 01:56:03;;;;;;;3.00;2.67;;;;;;;13.72;60.40;100631.09;4985594;28;20473;-22
2022/06/07 01:58:28;;;;;;;2.80;2.50;;;;;;;13.70;60.57;100623.19;4965802;28;20030;-22
2022/06/07 02:00:54;;;;;;;2.33;2.13;;;;;;;13.74;60.38;100623.97;4980088;28;20038;-22
2022/06/07 02:03:19;;;;;;;2.30;2.20;;;;;;;13.68;60.74;100622.38;4978758;28;20062;-23
2022/06/07 02:05:56;;;;;;;2.72;2.53;;;;;;;13.69;60.54;100624.09;4990034;28;20018;-23
2022/06/07 02:08:21;;;;;;;2.60;2.35;;;;;;;13.71;60.43;100634.66;4986052;28;20082;-22
2022/06/07 02:10:46;;;;;;;2.65;2.45;;;;;;;13.64;60.50;100628.63;4973917;28;20038;-22
2022/06/07 02:13:12;;;;;;;2.97;2.60;;;;;;;13.63;60.82;100626.03;4985427;28;20455;-22
2022/06/07 02:15:37;;;;;;;3.38;2.85;;;;;;;13.65;60.93;100629.50;4982888;28;20034;-22
2022/06/07 02:18:02;;;;;;;2.90;2.70;;;;;;;13.63;60.94;100631.34;4979436;28;20042;-22
2022/06/07 02:20:28;;;;;;;2.50;2.30;;;;;;;13.57;60.77;100632.34;4979144;28;20035;-22
2022/06/07 02:22:53;;;;;;;4.18;3.13;;;;;;;13.56;60.92;100633.22;4978366;28;20378;-22
2022/06/07 02:25:19;;;;;;;2.30;2.03;;;;;;;13.53;60.95;100630.63;4982334;28;20033;-21
2022/06/07 02:27:45;;;;;;;3.05;2.58;;;;;;;13.53;60.96;100641.22;4987112;28;20030;-19
2022/06/07 02:30:11;;;;;;;2.63;2.42;;;;;;;13.49;61.14;100629.84;4991660;28;20033;-19
2022/06/07 02:32:37;;;;;;;2.58;2.42;;;;;;;13.55;61.41;100635.03;4956040;28;20076;-21
2022/06/07 02:35:04;;;;;;;2.70;2.50;;;;;;;13.49;60.99;100634.25;4982816;28;20499;-19
2022/06/07 02:37:29;;;;;;;3.15;2.85;;;;;;;13.46;61.29;100635.16;4969024;28;20476;-21
2022/06/07 02:39:56;;;;;;;2.70;2.50;;;;;;;13.47;61.34;100627.19;4985640;28;20484;-20
2022/06/07 02:42:45;;;;;;;3.28;3.03;;;;;;;13.49;60.99;100639.56;4981353;28;20034;-20
2022/06/07 02:45:11;;;;;;;3.00;2.80;;;;;;;13.43;61.57;100629.94;4978626;28;20030;-20
2022/06/07 02:47:36;;;;;;;2.92;2.55;;;;;;;13.47;61.29;100629.84;4981329;28;20081;-20
2022/06/07 02:50:02;;;;;;;2.53;2.33;;;;;;;13.42;61.34;100629.09;4982779;28;20030;-21
2022/06/07 02:52:28;;;;;;;3.03;2.83;;;;;;;13.43;61.31;100621.97;4979547;28;20030;-21
2022/06/07 02:54:53;;;;;;;3.10;2.78;;;;;;;13.37;61.37;100625.63;4987211;28;20574;-20
2022/06/07 02:57:18;;;;;;;2.75;2.55;;;;;;;13.41;61.07;100627.31;4989064;28;20033;-20
2022/06/07 02:59:44;;;;;;;3.30;3.00;;;;;;;13.40;61.37;100624.72;4979304;28;20575;-20
2022/06/07 03:02:09;;;;;;;2.72;2.55;;;;;;;13.35;61.54;100623.03;4983931;28;21074;-20
2022/06/07 03:04:34;;;;;;;3.60;2.70;;;;;;;13.35;61.37;100624.81;4993017;28;20487;-20
2022/06/07 03:07:00;;;;;;;2.38;2.20;;;;;;;13.36;61.77;100623.91;4982580;28;20106;-19
2022/06/07 03:09:26;;;;;;;3.53;2.70;;;;;;;13.36;61.61;100621.25;4987746;28;20496;-20
2022/06/07 03:11:52;;;;;;;2.83;2.63;;;;;;;13.39;61.75;100621.19;4974903;28;20116;-20
2022/06/07 03:14:17;;;;;;;3.05;2.75;;;;;;;13.37;61.56;100625.63;4968167;28;20031;-21
2022/06/07 03:16:42;;;;;;;3.15;2.88;;;;;;;13.34;61.72;100620.44;4981796;28;20122;-21
2022/06/07 03:19:07;;;;;;;2.72;2.53;;;;;;;13.33;61.61;100623.97;4978491;28;20376;-21
2022/06/07 03:21:33;;;;;;;2.70;2.50;;;;;;;13.31;61.91;100616.03;4982020;28;20030;-20
2022/06/07 03:23:59;;;;;;;3.42;2.65;;;;;;;13.33;61.59;100621.31;4963003;28;20077;-20
2022/06/07 03:26:24;;;;;;;2.50;2.30;;;;;;;13.30;61.91;100624.91;4979303;28;20035;-20
2022/06/07 03:28:52;;;;;;;3.28;2.97;;;;;;;13.32;61.60;100619.59;4979210;28;20023;-20
2022/06/07 03:31:18;;;;;;;2.80;2.60;;;;;;;13.29;61.95;100623.16;4964878;28;20030;-19
2022/06/07 03:33:44;;;;;;;3.30;3.10;;;;;;;13.32;61.85;100624.88;4966043;28;20077;-20
2022/06/07 03:36:19;;;;;;;3.40;3.10;;;;;;;13.31;61.92;100625.78;4967899;28;20380;-20
2022/06/07 03:38:44;;;;;;;2.75;2.55;;;;;;;13.27;62.11;100618.81;4977543;28;20068;-19
2022/06/07 03:41:15;;;;;;;2.58;2.38;;;;;;;13.31;62.25;100615.19;4989898;28;20105;-20
2022/06/07 03:43:40;;;;;;;2.90;2.70;;;;;;;13.27;61.87;100619.66;4980955;28;20146;-20
2022/06/07 03:46:12;;;;;;;3.47;3.17;;;;;;;13.27;61.92;100619.66;4975571;28;20045;-20
2022/06/07 03:48:37;;;;;;;2.90;2.60;;;;;;;13.26;62.17;100615.28;4982930;28;20022;-21
2022/06/07 03:51:03;;;;;;;2.70;2.50;;;;;;;13.33;62.07;100618.66;4989533;28;20030;-21
2022/06/07 03:53:28;;;;;;;3.40;3.10;;;;;;;13.33;62.03;100611.59;4974856;28;20050;-22
2022/06/07 03:55:54;;;;;;;3.10;2.83;;;;;;;13.31;61.91;100628.44;4987334;28;20065;-21
2022/06/07 03:58:19;;;;;;;2.90;2.70;;;;;;;13.32;62.28;100625.75;4989955;28;20057;-19
2022/06/07 04:00:44;;;;;;;2.88;2.67;;;;;;;13.33;62.56;100630.16;4991602;28;20049;-20
2022/06/07 04:03:10;;;;;;;2.42;2.22;;;;;;;13.33;62.29;100634.56;4988946;28;20030;-19
2022/06/07 04:05:40;;;;;;;2.67;2.47;;;;;;;13.33;62.19;100626.63;4990487;28;20092;-20
2022/06/07 04:08:12;;;;;;;2.95;2.65;;;;;;;13.33;62.13;100623.97;4992962;28;20022;-20
2022/06/07 04:10:47;;;;;;;2.88;2.67;;;;;;;13.32;62.19;100632.81;4991179;28;20032;-20
2022/06/07 04:13:14;;;;;;;3.63;2.65;;;;;;;13.32;62.32;100619.59;4989490;28;20118;-20
2022/06/07 04:15:40;;;;;;;3.25;3.05;;;;;;;13.36;62.40;100623.91;4981249;28;20015;-20
2022/06/07 04:18:05;;;;;;;3.00;2.80;;;;;;;13.35;62.46;100616.88;4983466;28;21244;-20
2022/06/07 04:20:30;;;;;;;2.88;2.67;;;;;;;13.35;62.49;100611.56;4982828;28;20425;-21
2022/06/07 04:22:56;;;;;;;2.60;2.40;;;;;;;13.43;62.37;100614.03;4982974;28;20088;-21
2022/06/07 04:25:21;;;;;;;3.15;2.83;;;;;;;13.42;62.78;100615.84;4962865;28;20113;-20
2022/06/07 04:27:46;;;;;;;3.20;2.90;;;;;;;13.43;62.50;100616.69;4983390;28;20104;-21
2022/06/07 04:30:12;;;;;;;2.95;2.75;;;;;;;13.47;62.31;100616.59;4969847;28;20030;-20
2022/06/07 04:32:39;;;;;;;3.38;3.08;;;;;;;13.51;62.24;100621.88;4984029;28;20102;-19
2022/06/07 04:35:05;;;;;;;2.75;2.50;;;;;;;13.55;62.19;100620.88;4971187;28;20121;-21
2022/06/07 04:37:31;;;;;;;3.22;3.00;;;;;;;13.59;62.15;100619.91;4979991;28;20089;-19
2022/06/07 04:39:56;;;;;;;3.13;2.78;;;;;;;13.62;62.13;100609.25;4990512;28;20416;-20
2022/06/07 04:42:21;;;;;;;2.97;2.78;;;;;;;13.67;62.43;100612.66;4987946;28;20461;-20
2022/06/07 04:44:48;;;;;;;3.08;2.78;;;;;;;13.69;62.22;100602.91;4967676;28;20068;-19
2022/06/07 04:47:14;;;;;;;3.72;2.97;;;;;;;13.71;62.15;100601.06;4980916;28;20018;-19
2022/06/07 04:49:39;;;;;;;4.43;3.03;;;;;;;13.81;63.25;100608.81;4981528;28;20415;-20
2022/06/07 04:52:04;;;;;;;3.00;2.80;;;;;;;13.85;63.38;100615.78;4976543;28;20031;-21
2022/06/07 04:54:30;;;;;;;2.92;2.72;;;;;;;13.91;63.08;100620.06;4987368;28;20035;-19
2022/06/07 04:56:55;;;;;;;3.30;2.85;;;;;;;13.94;62.93;100620.00;4989168;28;20038;-21
2022/06/07 04:59:20;;;;;;;2.72;2.53;;;;;;;14.00;62.85;100622.50;4992622;28;20022;-21
2022/06/07 05:01:46;;;;;;;3.20;3.00;;;;;;;14.05;62.47;100622.38;4992602;28;20023;-20
2022/06/07 05:04:11;;;;;;;3.03;2.75;;;;;;;14.07;62.76;100620.59;4979791;28;20035;-20
2022/06/07 05:06:39;;;;;;;2.83;2.53;;;;;;;14.11;63.30;100622.25;4980954;28;20037;-21
2022/06/07 05:09:09;;;;;;;2.78;2.58;;;;;;;14.16;63.58;100620.34;4980361;28;20025;-21
2022/06/07 05:11:34;;;;;;;2.85;2.63;;;;;;;14.22;62.74;100619.31;4981337;28;20165;-20
2022/06/07 05:14:04;;;;;;;3.45;3.08;;;;;;;14.29;62.41;100617.38;4969892;28;20402;-22
2022/06/07 05:16:29;;;;;;;2.88;2.67;;;;;;;14.34;62.40;100620.81;4971838;28;20489;-20
2022/06/07 05:18:55;;;;;;;2.63;2.42;;;;;;;14.38;63.39;100606.53;4988615;28;20376;-22
2022/06/07 05:21:22;;;;;;;2.92;2.72;;;;;;;14.44;62.81;100613.47;4981636;28;20170;-20
2022/06/07 05:23:47;;;;;;;2.83;2.63;;;;;;;14.51;62.83;100615.06;4986866;28;20060;-21
2022/06/07 05:26:21;;;;;;;3.17;2.88;;;;;;;14.59;63.39;100615.72;4981688;28;20031;-20
2022/06/07 05:28:46;;;;;;;3.38;3.08;;;;;;;14.65;62.86;100616.44;4973057;28;20149;-21
2022/06/07 05:31:12;;;;;;;2.90;2.70;;;;;;;14.70;62.77;100623.38;4978050;28;20030;-21
2022/06/07 05:33:37;;;;;;;3.00;2.80;;;;;;;14.77;62.81;100620.56;4981444;28;20169;-21
2022/06/07 05:36:03;;;;;;;3.13;2.90;;;;;;;14.85;63.41;100621.25;4988413;28;20818;-20
2022/06/07 05:38:29;;;;;;;2.78;2.58;;;;;;;14.94;62.33;100620.97;4987660;28;20039;-19
2022/06/07 05:40:54;;;;;;;3.45;2.70;;;;;;;15.05;63.41;100618.03;4990943;28;20427;-20
2022/06/07 05:43:20;;;;;;;4.55;3.13;;;;;;;15.16;63.39;100616.81;4982754;28;20050;-21
2022/06/07 05:45:49;;;;;;;4.82;2.92;;;;;;;15.25;63.15;100620.09;4992220;28;20049;-21
2022/06/07 05:48:15;;;;;;;3.17;2.88;;;;;;;15.34;63.00;100624.25;4989607;28;20091;-21
2022/06/07 05:50:42;;;;;;;3.30;3.00;;;;;;;15.42;62.98;100629.34;4989328;28;20475;-21
2022/06/07 05:53:07;;;;;;;3.78;3.38;;;;;;;15.51;63.60;100639.69;4986225;28;20383;-20
2022/06/07 05:55:32;;;;;;;3.35;2.95;;;;;;;15.64;64.98;100636.69;4987021;28;20054;-21
2022/06/07 05:57:58;;;;;;;3.35;3.15;;;;;;;15.75;64.87;100637.22;4969278;28;20501;-20
2022/06/07 06:00:24;;;;;;;3.45;3.10;;;;;;;15.86;63.88;100641.31;4987131;28;20041;-21
2022/06/07 06:02:50;;;;;;;3.70;3.28;;;;;;;15.95;63.85;100633.09;4976075;28;20114;-21
2022/06/07 06:05:15;;;;;;;3.22;2.83;;;;;;;16.07;64.70;100641.59;4985122;28;20060;-20
2022/06/07 06:10:25;;;;;;;3.22;2.85;;;;;;;16.27;63.64;100636.47;4971412;28;20040;-21
2022/06/07 06:12:50;;;;;;;2.97;2.78;;;;;;;16.38;63.99;100651.22;4987157;28;20380;-20
2022/06/07 06:15:16;;;;;;;2.92;2.70;;;;;;;16.53;64.12;100645.34;4988493;28;20058;-21
2022/06/07 06:17:41;;;;;;;7.38;3.10;;;;;;;16.63;63.41;100643.25;4987823;28;20058;-20
2022/06/07 06:20:09;;;;;;;3.28;3.08;;;;;;;16.75;64.05;100631.28;4986749;28;20026;-21
2022/06/07 06:22:35;;;;;;;4.28;2.90;;;;;;;16.88;63.80;100639.69;4970627;28;20575;-22
2022/06/07 06:25:00;;;;;;;4.57;3.30;;;;;;;16.98;64.31;100634.91;4985537;28;20108;-20
2022/06/07 06:27:26;;;;;;;4.57;2.90;;;;;;;17.10;63.63;100636.28;4986896;28;20443;-20
2022/06/07 06:29:51;;;;;;;3.13;2.92;;;;;;;17.24;64.32;100635.75;4987846;28;20100;-20
2022/06/07 06:32:16;;;;;;;3.92;3.38;;;;;;;17.35;63.68;100634.50;4986983;28;20528;-20
2022/06/07 06:34:42;;;;;;;3.60;3.30;;;;;;;17.49;64.60;100640.16;4981445;28;20065;-22
2022/06/07 06:37:08;;;;;;;3.50;3.20;;;;;;;17.62;64.00;100639.69;4967143;28;20030;-20
2022/06/07 06:39:33;;;;;;;3.60;2.85;;;;;;;17.72;63.86;100641.06;4978020;28;20470;-21
2022/06/07 06:41:58;;;;;;;9.80;3.33;;;;;;;17.87;64.29;100638.72;4977123;28;20148;-21
2022/06/07 06:44:24;;;;;;;4.18;3.58;;;;;;;17.96;63.46;100641.00;4983050;28;20100;-20
2022/06/07 06:46:49;;;;;;;3.58;3.05;;;;;;;18.08;64.44;100632.47;4976671;28;20053;-21
2022/06/07 06:49:15;;;;;;;3.75;3.20;;;;;;;18.23;64.46;100634.63;4986454;28;20049;-21
2022/06/07 06:51:41;;;;;;;3.80;3.10;;;;;;;18.37;63.99;100636.72;4987528;28;20133;-20
2022/06/07 06:54:08;;;;;;;3.00;2.80;;;;;;;18.48;63.71;100639.78;4980225;28;20102;-21
2022/06/07 06:56:34;;;;;;;3.10;2.90;;;;;;;18.58;63.66;100633.09;4957400;28;20030;-20
2022/06/07 06:58:59;;;;;;;2.72;2.53;;;;;;;18.66;63.48;100626.56;4978151;28;20073;-20
2022/06/07 07:01:28;;;;;;;2.72;2.53;;;;;;;18.72;63.40;100631.63;4979378;28;20547;-20
2022/06/07 07:03:54;;;;;;;3.33;2.70;;;;;;;18.83;63.21;100624.00;4981974;28;20060;-20
2022/06/07 07:06:20;;;;;;;3.90;3.33;;;;;;;18.92;62.50;100621.84;4986289;28;20120;-20
2022/06/07 07:08:46;;;;;;;2.92;2.72;;;;;;;19.01;62.24;100616.13;4977623;28;20018;-20
2022/06/07 07:11:20;;;;;;;2.70;2.50;;;;;;;19.09;62.29;100614.00;4986223;28;20134;-19
2022/06/07 07:13:47;;;;;;;4.70;2.60;;;;;;;19.15;61.40;100618.19;4990435;28;20037;-20
2022/06/07 07:16:16;;;;;;;2.97;2.78;;;;;;;19.32;60.99;100622.75;4988774;28;20018;-21
2022/06/07 07:18:42;;;;;;;3.05;2.80;;;;;;;19.43;60.48;100621.34;4986421;28;20511;-20
2022/06/07 07:21:12;;;;;;;2.15;1.98;;;;;;;19.48;60.18;100614.00;4986961;28;20030;-22
2022/06/07 07:23:38;;;;;;;2.30;2.10;;;;;;;19.54;59.96;100612.84;4980245;28;20022;-20
2022/06/07 07:26:06;;;;;;;3.47;2.00;;;;;;;19.61;60.04;100617.81;4977262;28;20030;-20
2022/06/07 07:28:33;;;;;;;3.17;2.08;;;;;;;19.74;58.74;100610.03;4979821;28;20040;-20
2022/06/07 07:31:05;;;;;;;2.35;2.15;;;;;;;19.80;59.04;100619.59;4978611;28;20062;-21
2022/06/07 07:33:31;;;;;;;3.90;2.30;;;;;;;19.84;58.79;100617.66;4953996;28;20025;-22
2022/06/07 07:35:56;;;;;;;3.83;2.10;;;;;;;19.89;58.91;100612.91;4990888;28;20399;-21
2022/06/07 07:38:22;;;;;;;2.00;1.90;;;;;;;19.96;58.98;100613.47;4988290;28;20514;-20
2022/06/07 07:40:47;;;;;;;3.47;2.30;;;;;;;20.04;59.34;100622.00;4974552;28;20022;-21
2022/06/07 07:43:13;;;;;;;7.13;2.70;;;;;;;20.12;58.51;100622.53;4987855;28;20031;-21
2022/06/07 07:45:38;;;;;;;2.30;1.90;;;;;;;20.18;58.19;100636.53;4963465;28;20023;-22
2022/06/07 07:48:04;;;;;;;2.13;1.92;;;;;;;20.32;57.32;100622.44;4978329;28;20023;-19
2022/06/07 07:50:29;;;;;;;2.00;1.80;;;;;;;20.38;57.64;100624.81;4975381;28;20022;-20
2022/06/07 07:52:57;;;;;;;3.10;2.13;;;;;;;20.49;57.24;100622.44;4977735;28;20061;-21
2022/06/07 07:55:23;;;;;;;2.10;2.00;;;;;;;20.57;57.24;100624.72;4971808;28;20403;-22
2022/06/07 07:57:48;;;;;;;2.28;1.83;;;;;;;20.60;57.12;100623.69;4987579;28;20027;-22
2022/06/07 08:00:14;;;;;;;2.17;1.98;;;;;;;20.74;56.76;100606.91;4985826;28;20085;-22
2022/06/07 08:02:39;;;;;;;1.80;1.70;;;;;;;20.80;56.51;100619.13;4988417;28;21109;-22
2022/06/07 08:05:05;;;;;;;2.20;2.00;;;;;;;20.93;55.79;100614.84;4987310;28;20388;-21
2022/06/07 08:07:30;;;;;;;1.60;1.50;;;;;;;20.97;55.96;100611.03;4972196;28;20057;-22
2022/06/07 08:09:55;;;;;;;1.70;1.60;;;;;;;20.95;55.83;100618.31;4987381;28;20036;-22
2022/06/07 08:12:21;;;;;;;2.10;1.63;;;;;;;20.98;54.87;100618.13;4987034;28;20105;-22
2022/06/07 08:14:46;;;;;;;1.30;1.10;;;;;;;21.03;53.80;100620.56;4977355;28;20034;-22
2022/06/07 08:17:11;;;;;;;1.30;1.20;;;;;;;21.05;53.94;100621.38;4977299;28;20105;-22
2022/06/07 08:19:36;;;;;;;1.10;1.10;;;;;;;21.03;53.38;100620.56;4978560;28;20050;-21
2022/06/07 08:22:04;;;;;;;1.65;1.42;;;;;;;20.98;53.65;100617.28;4976708;28;20134;-22
2022/06/07 08:24:29;;;;;;;3.50;2.08;;;;;;;21.01;53.28;100617.13;4978959;28;20147;-22
2022/06/07 08:26:55;;;;;;;2.28;1.50;;;;;;;21.02;54.08;100610.81;4983145;28;20117;-21
2022/06/07 08:29:20;;;;;;;1.50;1.40;;;;;;;21.08;52.90;100613.16;4986976;28;20122;-23
2022/06/07 08:31:45;;;;;;;1.30;1.20;;;;;;;21.13;52.95;100610.22;4988995;28;20022;-21
2022/06/07 08:39:41;;;;;;;2.00;1.63;;;;;;;21.36;51.43;100610.75;4992047;28;20157;-21
2022/06/07 08:42:31;;;;;;;1.40;1.30;;;;;;;21.48;51.74;100610.06;4991419;28;20113;-21
2022/06/07 08:44:58;;;;;;;2.13;1.52;;;;;;;21.61;51.71;100599.50;4977519;28;20347;-22
2022/06/07 08:47:48;;;;;;;1.90;1.80;;;;;;;21.73;51.33;100614.03;4967164;28;20030;-21
2022/06/07 08:50:19;;;;;;;2.35;1.27;;;;;;;21.76;51.16;100602.28;4982229;28;20031;-21
2022/06/07 08:52:46;;;;;;;2.13;1.40;;;;;;;21.84;50.68;100607.22;4981757;28;20109;-21
2022/06/07 08:55:16;;;;;;;2.78;1.30;;;;;;;21.86;50.83;100598.13;4982182;28;20034;-21
2022/06/07 08:57:42;;;;;;;3.03;1.33;;;;;;;21.92;50.94;100603.16;4978176;28;20027;-21
2022/06/07 09:00:18;;;;;;;2.08;1.10;;;;;;;22.01;50.30;100590.16;4978440;28;20053;-23
2022/06/07 09:02:45;;;;;;;2.03;1.23;;;;;;;22.15;50.03;100592.84;4982280;28;20034;-22
2022/06/07 09:05:13;;;;;;;1.27;1.20;;;;;;;22.17;50.38;100584.72;4982998;28;20062;-21
2022/06/07 09:07:40;;;;;;;1.77;1.42;;;;;;;22.29;49.79;100589.38;4980495;28;20026;-22
2022/06/07 09:13:19;;;;;;;1.60;1.00;;;;;;;22.39;49.54;100583.44;4977193;28;20041;-21
2022/06/07 09:15:50;;;;;;;2.53;1.10;;;;;;;22.53;47.26;100578.06;4965534;28;20504;-21
2022/06/07 09:18:18;;;;;;;1.00;1.00;;;;;;;22.58;48.26;100574.28;4982393;28;20034;-21
2022/06/07 09:20:46;;;;;;;1.40;1.30;;;;;;;22.57;48.63;100575.25;4979272;28;20444;-22
2022/06/07 09:23:16;;;;;;;1.80;1.65;;;;;;;22.57;48.74;100570.72;4981526;28;20496;-21
2022/06/07 09:25:48;;;;;;;1.25;1.20;;;;;;;22.67;49.44;100568.31;4982079;28;20477;-21
2022/06/07 09:28:23;;;;;;;1.55;1.17;;;;;;;22.86;49.38;100564.47;4973844;28;20073;-22
2022/06/07 09:31:00;;;;;;;2.88;1.17;;;;;;;23.00;48.55;100558.22;4978523;28;20460;-21
2022/06/07 09:33:29;;;;;;;1.40;1.30;;;;;;;23.02;49.65;100551.81;4978469;28;20039;-22
2022/06/07 09:35:58;;;;;;;3.30;1.30;;;;;;;23.25;47.04;100560.22;4980703;28;20029;-21
2022/06/07 09:38:28;;;;;;;3.60;1.40;;;;;;;23.35;46.72;100565.91;4984368;28;20026;-21
2022/06/07 09:40:53;;;;;;;;;;;;;;;23.41;45.57;100545.81;4968113;28;20027;-21
2022/06/07 09:43:25;;;;;;;1.63;1.40;;;;;;;23.39;45.83;100555.78;4969582;28;20811;-22
2022/06/07 09:46:05;;;;;;;1.30;1.17;;;;;;;23.40;45.70;100546.75;4977372;28;20457;-22
2022/06/07 09:48:36;;;;;;;2.17;1.10;;;;;;;23.54;46.79;100527.88;4965984;28;20487;-23
2022/06/07 09:51:19;;;;;;;2.67;1.40;;;;;;;23.64;45.14;100533.50;4977330;28;20035;-21
2022/06/07 09:54:17;;;;;;;3.55;1.42;;;;;;;23.68;45.96;100531.47;4975230;28;20146;-22
2022/06/07 09:57:02;;;;;;;1.40;1.30;;;;;;;23.71;45.81;100528.59;4972188;28;20763;-21
2022/06/07 09:59:46;;;;;;;1.20;1.10;;;;;;;23.66;46.62;100525.31;4943839;28;20039;-22
2022/06/07 10:02:42;;;;;;;1.77;1.25;;;;;;;23.61;45.77;100539.09;4976160;28;20025;-21
2022/06/07 10:05:28;;;;;;;1.45;1.08;;;;;;;23.65;45.89;100548.72;4977729;28;20034;-21
2022/06/07 10:08:07;;;;;;;1.63;1.20;;;;;;;23.63;45.13;100550.63;4960194;28;20113;-23
2022/06/07 10:11:14;;;;;;;1.10;1.10;;;;;;;23.60;45.06;100545.44;4977643;28;20042;-21
2022/06/07 10:13:57;;;;;;;1.90;1.23;;;;;;;23.58;45.23;100550.91;4978595;28;20045;-21
2022/06/07 10:16:29;;;;;;;0.90;0.90;;;;;;;23.58;45.61;100550.06;4989795;28;20125;-22
2022/06/07 10:19:17;;;;;;;1.17;1.08;;;;;;;23.55;45.59;100543.06;4984014;28;20684;-21
2022/06/07 10:22:02;;;;;;;2.40;0.70;;;;;;;23.55;45.23;100544.88;4973986;28;20401;-22
2022/06/07 10:24:41;;;;;;;1.02;0.90;;;;;;;23.61;43.73;100535.53;4979749;28;20026;-21
2022/06/07 10:27:18;;;;;;;1.20;0.95;;;;;;;23.65;44.10;100534.38;4977466;28;20117;-22
2022/06/07 10:30:15;;;;;;;1.42;1.08;;;;;;;23.67;43.98;100527.03;4979103;28;20080;-21
2022/06/07 10:33:22;;;;;;;1.20;1.05;;;;;;;23.61;43.57;100528.31;4977521;28;20030;-21
2022/06/07 10:35:59;;;;;;;1.38;1.10;;;;;;;23.68;43.96;100524.25;4978207;28;20066;-22
2022/06/07 10:38:27;;;;;;;1.23;1.05;;;;;;;23.75;43.44;100513.94;4977982;28;20496;-21
2022/06/07 10:41:04;;;;;;;1.95;1.13;;;;;;;23.83;42.86;100519.66;4983183;28;20370;-21
2022/06/07 10:43:48;;;;;;;1.60;0.93;;;;;;;23.84;42.63;100524.09;4964411;28;20039;-21
2022/06/07 10:46:16;;;;;;;1.52;0.95;;;;;;;23.89;42.94;100515.69;4980353;28;20065;-21
2022/06/07 10:48:59;;;;;;;1.67;0.95;;;;;;;23.93;42.45;100514.53;4969701;28;20022;-21
2022/06/07 10:54:17;;;;;;;;;;;;;;;24.07;42.89;100523.47;4985168;28;20096;-21
2022/06/07 10:57:09;;;;;;;3.25;0.90;;;;;;;24.14;42.89;100518.56;4984844;28;19916;-21
2022/06/07 10:59:37;;;;;;;1.40;0.95;;;;;;;24.19;42.60;100522.69;4976508;28;20049;-21
2022/06/07 11:02:26;;;;;;;1.05;0.98;;;;;;;24.12;42.52;100521.38;4977178;28;20061;-22
2022/06/07 11:10:44;;;;;;;1.02;0.82;;;;;;;24.27;42.02;100502.41;4976891;28;20034;-21
2022/06/07 11:13:17;;;;;;;2.03;0.90;;;;;;;24.16;43.69;100501.34;4975712;28;20038;-21
2022/06/07 11:15:44;;;;;;;2.40;1.08;;;;;;;24.24;42.58;100498.09;4960345;28;20031;-21
2022/06/07 11:18:22;;;;;;;1.45;0.90;;;;;;;24.30;42.43;100494.09;4953385;28;20051;-21
2022/06/07 11:21:02;;;;;;;2.83;0.95;;;;;;;24.44;41.86;100494.00;4975409;28;20503;-21
2022/06/07 11:24:02;;;;;;;1.52;1.15;;;;;;;24.67;40.04;100498.72;4963022;28;20034;-21
2022/06/07 11:26:37;;;;;;;0.90;0.90;;;;;;;24.63;41.18;100498.06;4978718;28;20039;-21
2022/06/07 11:29:07;;;;;;;0.80;0.80;;;;;;;24.63;40.87;100492.69;4972787;28;20030;-21
2022/06/07 11:31:44;;;;;;;0.65;0.65;;;;;;;24.67;41.80;100483.41;4982411;28;20064;-21
2022/06/07 11:34:13;;;;;;;1.30;0.90;;;;;;;24.80;40.53;100491.47;4980421;28;20487;-21
2022/06/07 11:36:41;;;;;;;1.80;1.20;;;;;;;24.90;40.20;100483.59;4975908;28;20034;-21
2022/06/07 11:39:28;;;;;;;0.85;0.85;;;;;;;24.94;40.52;100487.78;4963027;28;20066;-21
2022/06/07 11:42:21;;;;;;;1.38;1.13;;;;;;;24.94;41.04;100482.41;4975135;28;20303;-23
2022/06/07 11:45:12;;;;;;;1.38;0.88;;;;;;;24.94;40.26;100479.69;4973600;28;20160;-21
2022/06/07 11:47:43;;;;;;;1.85;0.95;;;;;;;25.04;40.64;100479.03;4966990;28;20448;-21
2022/06/07 11:50:29;;;;;;;2.10;0.90;;;;;;;25.10;40.14;100470.47;4974957;28;20491;-22
2022/06/07 11:53:13;;;;;;;1.00;0.90;;;;;;;25.13;40.42;100474.78;4958247;28;20026;-21
2022/06/07 11:55:41;;;;;;;1.15;0.80;;;;;;;25.22;40.00;100469.59;4968574;28;20034;-23
2022/06/07 11:58:07;;;;;;;3.95;1.30;;;;;;;25.29;40.55;100467.28;4963787;28;20559;-21
2022/06/07 12:00:39;;;;;;;1.52;1.13;;;;;;;25.31;40.66;100473.41;4973896;28;20034;-21
2022/06/07 12:03:10;;;;;;;1.50;1.05;;;;;;;25.36;40.86;100464.97;4975719;28;20030;-21
2022/06/07 12:05:35;;;;;;;1.33;0.90;;;;;;;25.40;39.95;100479.13;4978595;28;20026;-21